Portada
METAR-TAF:

METAR-TAF

Aeroports :

Barquisimeto, Veneçuela

latitud: 10-04N, longitud: 069-19W, altitud: 613 m

Observació

L'informe es va fer fa 1 hora i 8 minuts, a les 15:03 UTC
Vent 7 kt del Est
Temperatura 32°C
Humitat 52%
Pressió 1016 hPa

METAR: SVBM 191503Z AUTO 10007KT NCD 32/21 Q1016

Hora: 12:11 (16:11 UTC)


TAF: manca

Observacions i pronòstics meteorològics de més de 4000 aeroports (METAR i TAF).

Les estacions disponibles són els punts grocs i vermells al mapa.

Posi el ratolí al punt desitjat per veure el nom de l'estació.

Feu clic per veure les observacions i els pronòstics meteorològics.

Per canviar el mapa: feu clic els botons verds amb una creu de color negre per apropar; al botó verd amb un guió per allunyar la imatge; o en les fletxes verdes per a mapes adjacents.


METAR-TAF: